Time;durP1;ratioP1;P1;durP2;ratioP2;P2;SDS_P1;SDS_P2;PMS_P1;PMS_P2;Temp;Humidity;BMP_temperature;BMP_pressure;BME280_temperature;BME280_humidity;BME280_pressure;Samples;Min_cycle;Max_cycle;Signal;HPM_P1;HPM_P2
2021/03/29 00:01:20;;;;;;;6.57;2.13;;;;;;;10.92;55.70;101838.00;5059082;28;20039;-72
2021/03/29 00:03:46;;;;;;;7.45;2.80;;;;;;;10.92;55.28;101838.00;5062346;28;20149;-73
2021/03/29 00:06:11;;;;;;;8.55;3.00;;;;;;;10.94;55.57;101844.22;5062307;28;20040;-73
2021/03/29 00:08:38;;;;;;;6.97;2.63;;;;;;;10.96;55.42;101845.13;5080532;22;20045;-67
2021/03/29 00:11:04;;;;;;;8.10;2.75;;;;;;;10.98;55.25;101839.88;5051642;28;20045;-68
2021/03/29 00:13:31;;;;;;;7.15;2.72;;;;;;;10.98;55.40;101842.50;5053814;28;20040;-67
2021/03/29 00:15:59;;;;;;;8.40;2.22;;;;;;;10.99;55.46;101849.56;5053872;28;20415;-67
2021/03/29 00:18:25;;;;;;;7.00;2.65;;;;;;;10.96;55.58;101850.41;5053758;28;20467;-67
2021/03/29 00:20:57;;;;;;;7.40;2.67;;;;;;;10.94;55.10;101843.31;5053719;28;20029;-68
2021/03/29 00:23:24;;;;;;;6.15;2.53;;;;;;;10.93;55.37;101844.22;5053845;28;20182;-67
2021/03/29 00:25:50;;;;;;;8.80;2.72;;;;;;;10.93;55.39;101838.94;5050902;28;20104;-67
2021/03/29 00:28:16;;;;;;;8.15;2.40;;;;;;;10.89;55.50;101835.34;5053651;28;20036;-68
2021/03/29 00:30:45;;;;;;;5.60;2.55;;;;;;;10.86;55.83;101837.06;5053482;28;20403;-68
2021/03/29 00:33:11;;;;;;;4.97;1.98;;;;;;;10.80;55.88;101837.88;5053641;28;20067;-67
2021/03/29 00:35:40;;;;;;;6.25;2.30;;;;;;;10.80;55.71;101842.28;5053380;28;20041;-67
2021/03/29 00:38:09;;;;;;;7.85;2.88;;;;;;;10.78;55.73;101844.00;5053563;28;20033;-67
2021/03/29 00:40:37;;;;;;;6.20;2.85;;;;;;;10.78;56.63;101841.34;5053508;28;20087;-67
2021/03/29 00:43:16;;;;;;;7.07;3.10;;;;;;;10.78;56.74;101842.22;5053566;28;20064;-67
2021/03/29 00:45:43;;;;;;;7.55;2.60;;;;;;;10.83;56.20;101842.31;5053259;28;20498;-67
2021/03/29 00:48:10;;;;;;;4.78;1.73;;;;;;;10.83;56.27;101848.47;5053503;28;20499;-67
2021/03/29 00:51:03;;;;;;;5.63;2.10;;;;;;;10.81;55.78;101847.56;5053274;28;20037;-67
2021/03/29 00:53:30;;;;;;;7.50;2.53;;;;;;;10.82;55.99;101852.00;5068816;28;20029;-67
2021/03/29 00:55:56;;;;;;;7.63;2.20;;;;;;;10.81;56.07;101847.56;5053049;28;20062;-67
2021/03/29 00:58:24;;;;;;;7.25;2.50;;;;;;;10.77;55.75;101852.75;5052924;28;20159;-67
2021/03/29 01:00:55;;;;;;;8.88;2.45;;;;;;;10.73;55.97;101850.09;5053221;28;20029;-67
2021/03/29 01:03:25;;;;;;;6.68;2.45;;;;;;;10.77;56.30;101843.13;5053179;28;20037;-67
2021/03/29 01:06:04;;;;;;;5.28;2.45;;;;;;;10.78;56.17;101839.59;5052905;28;20033;-67
2021/03/29 01:08:30;;;;;;;8.23;2.78;;;;;;;10.80;56.22;101842.28;5052863;28;20029;-67
2021/03/29 01:10:58;;;;;;;6.30;2.53;;;;;;;10.77;56.47;101843.13;5052853;28;20039;-68
2021/03/29 01:13:24;;;;;;;6.38;2.38;;;;;;;10.76;56.24;101838.69;5053029;28;20469;-67
2021/03/29 01:15:51;;;;;;;6.80;2.83;;;;;;;10.79;56.43;101835.19;5052733;28;20041;-67
2021/03/29 01:18:19;;;;;;;5.88;2.53;;;;;;;10.82;55.91;101848.44;5052743;28;20028;-67
2021/03/29 01:21:00;;;;;;;8.35;2.88;;;;;;;10.72;55.63;101844.81;5044782;28;20131;-67
2021/03/29 01:23:28;;;;;;;8.20;2.60;;;;;;;10.75;55.99;101845.72;5051546;28;20043;-67
2021/03/29 01:26:01;;;;;;;7.45;2.85;;;;;;;10.76;55.52;101851.88;5052689;28;20126;-67
2021/03/29 01:28:27;;;;;;;5.20;2.25;;;;;;;10.79;55.75;101844.00;5052475;28;20044;-67
2021/03/29 01:30:53;;;;;;;6.55;2.78;;;;;;;10.79;56.19;101841.34;5052529;28;20043;-67
2021/03/29 01:33:21;;;;;;;7.93;2.90;;;;;;;10.78;55.92;101844.88;5052563;28;20048;-68
2021/03/29 01:35:52;;;;;;;7.97;2.88;;;;;;;10.77;55.42;101845.75;5052225;28;20045;-67
2021/03/29 01:38:18;;;;;;;7.75;2.33;;;;;;;10.72;55.61;101847.44;5052615;28;20404;-67
2021/03/29 01:40:45;;;;;;;6.53;2.47;;;;;;;10.67;55.78;101846.47;5044138;28;20044;-68
2021/03/29 01:43:13;;;;;;;6.22;2.28;;;;;;;10.69;55.91;101847.41;5052511;28;20123;-67
2021/03/29 01:45:40;;;;;;;6.68;2.22;;;;;;;10.66;55.45;101850.88;5052096;28;20044;-67
2021/03/29 01:48:07;;;;;;;6.43;2.30;;;;;;;10.60;55.58;101845.50;5052328;28;20064;-67
2021/03/29 01:50:36;;;;;;;8.00;2.85;;;;;;;10.59;55.47;101845.50;5051911;28;20041;-67
2021/03/29 01:53:03;;;;;;;8.90;2.80;;;;;;;10.60;55.78;101847.25;5052186;28;20119;-67
2021/03/29 01:55:30;;;;;;;7.60;2.45;;;;;;;10.55;56.17;101846.28;5051953;28;20444;-67
2021/03/29 01:57:56;;;;;;;6.90;2.17;;;;;;;10.53;55.70;101847.16;5052017;28;20028;-67
2021/03/29 02:00:25;;;;;;;5.35;2.10;;;;;;;10.53;55.91;101851.53;5051921;28;20036;-67
2021/03/29 02:02:51;;;;;;;7.97;2.30;;;;;;;10.53;56.15;101847.16;5051917;28;20033;-67
2021/03/29 02:05:17;;;;;;;8.00;2.10;;;;;;;10.55;55.52;101848.94;5051961;28;20081;-67
2021/03/29 02:07:44;;;;;;;5.95;1.90;;;;;;;10.56;55.89;101848.06;5051789;28;20089;-67
2021/03/29 02:10:13;;;;;;;7.32;2.10;;;;;;;10.54;55.83;101850.69;5051624;28;20044;-67
2021/03/29 02:12:39;;;;;;;4.70;2.05;;;;;;;10.55;55.84;101846.28;5051733;28;20041;-67
2021/03/29 02:15:10;;;;;;;5.03;1.90;;;;;;;10.56;55.33;101845.41;5051593;28;20072;-67
2021/03/29 02:17:37;;;;;;;4.97;1.45;;;;;;;10.50;55.30;101840.94;5051705;28;20041;-67
2021/03/29 02:20:12;;;;;;;9.68;2.08;;;;;;;10.53;55.42;101839.25;5051615;28;20048;-67
2021/03/29 02:22:38;;;;;;;6.25;2.03;;;;;;;10.58;55.81;101847.22;5051710;28;20494;-67
2021/03/29 02:25:06;;;;;;;6.03;2.42;;;;;;;10.59;55.87;101842.84;5051443;28;20029;-66
2021/03/29 02:27:34;;;;;;;6.50;2.08;;;;;;;10.52;56.03;101840.09;5051557;28;20488;-67
2021/03/29 02:30:00;;;;;;;5.65;2.10;;;;;;;10.50;55.59;101844.47;5051204;28;20049;-67
2021/03/29 02:32:26;;;;;;;5.65;2.47;;;;;;;10.55;55.88;101844.53;5051708;28;20123;-67
2021/03/29 02:34:52;;;;;;;6.38;1.70;;;;;;;10.60;55.55;101847.25;5051280;28;20495;-67
2021/03/29 02:37:18;;;;;;;5.65;1.95;;;;;;;10.52;56.00;101848.00;5051123;28;20110;-66
2021/03/29 02:39:43;;;;;;;10.45;2.50;;;;;;;10.45;56.02;101845.25;5051315;28;20072;-67
2021/03/29 02:42:09;;;;;;;8.25;1.80;;;;;;;10.45;55.44;101846.16;5051330;28;20029;-67
2021/03/29 02:44:36;;;;;;;9.55;2.00;;;;;;;10.50;56.23;101849.75;5051284;28;20039;-67
2021/03/29 02:47:01;;;;;;;6.10;2.05;;;;;;;10.52;56.01;101848.00;5051053;28;20067;-68
2021/03/29 02:49:27;;;;;;;8.98;2.58;;;;;;;10.51;56.06;101851.53;5051211;28;20033;-68
2021/03/29 02:51:52;;;;;;;8.68;2.13;;;;;;;10.51;55.85;101846.25;5051146;28;20133;-67
2021/03/29 02:54:20;;;;;;;7.00;2.80;;;;;;;10.51;55.69;101848.88;5051229;28;20064;-67
2021/03/29 02:56:47;;;;;;;7.03;2.30;;;;;;;10.54;55.78;101845.41;5043027;28;20086;-67
2021/03/29 02:59:20;;;;;;;5.90;2.53;;;;;;;10.55;55.99;101846.28;5050984;28;20044;-67
2021/03/29 03:01:46;;;;;;;6.53;2.80;;;;;;;10.55;56.25;101851.56;5043318;28;20033;-68
2021/03/29 03:04:14;;;;;;;8.68;2.15;;;;;;;10.54;56.36;101858.63;5051094;28;20036;-67
2021/03/29 03:06:39;;;;;;;7.88;2.15;;;;;;;10.50;56.12;101849.75;5050830;28;20047;-67
2021/03/29 03:09:08;;;;;;;6.95;2.13;;;;;;;10.49;56.39;101855.91;5050938;28;20033;-67
2021/03/29 03:11:34;;;;;;;8.38;2.53;;;;;;;10.52;56.60;101858.56;5050827;28;20029;-67
2021/03/29 03:14:07;;;;;;;5.70;2.05;;;;;;;10.55;56.62;101849.81;5050990;28;20128;-67
2021/03/29 03:16:35;;;;;;;7.05;2.55;;;;;;;10.53;56.52;101855.09;5050714;28;20041;-67
2021/03/29 03:19:01;;;;;;;8.18;2.83;;;;;;;10.51;56.74;101855.94;5050927;28;20086;-68
2021/03/29 03:21:26;;;;;;;7.72;2.50;;;;;;;10.48;56.63;101862.06;5050904;28;20037;-67
2021/03/29 03:23:56;;;;;;;6.60;2.13;;;;;;;10.45;56.76;101859.38;5050909;28;20075;-68
2021/03/29 03:26:23;;;;;;;8.75;2.55;;;;;;;10.44;56.16;101862.84;5050316;28;20048;-67
2021/03/29 03:28:49;;;;;;;6.68;2.03;;;;;;;10.45;56.66;101856.72;5050691;28;20029;-68
2021/03/29 03:31:14;;;;;;;8.98;2.83;;;;;;;10.46;56.71;101854.97;5050895;28;20399;-67
2021/03/29 03:33:40;;;;;;;9.23;2.10;;;;;;;10.42;56.91;101856.66;5050727;28;20051;-67
2021/03/29 03:36:06;;;;;;;7.70;2.25;;;;;;;10.38;57.16;101854.84;5050627;28;20055;-67
2021/03/29 03:38:38;;;;;;;8.27;2.70;;;;;;;10.42;56.54;101851.38;5050564;28;20025;-67
2021/03/29 03:41:08;;;;;;;6.43;2.00;;;;;;;10.43;57.08;101862.84;5049417;28;20586;-68
2021/03/29 03:43:36;;;;;;;6.47;2.28;;;;;;;10.46;56.34;101858.50;5055929;28;20469;-68
2021/03/29 03:46:07;;;;;;;9.65;2.20;;;;;;;10.45;56.21;101863.72;5065291;28;20036;-67
2021/03/29 03:48:33;;;;;;;6.22;1.85;;;;;;;10.49;56.87;101863.81;5055904;28;20037;-68
2021/03/29 03:50:59;;;;;;;7.70;2.72;;;;;;;10.47;57.29;101864.66;5059803;28;20442;-68
2021/03/29 03:53:27;;;;;;;5.80;1.75;;;;;;;10.42;57.52;101859.28;5062019;28;20044;-68
2021/03/29 03:55:53;;;;;;;6.70;2.70;;;;;;;10.39;57.45;101859.25;5054173;28;20044;-68
2021/03/29 03:58:19;;;;;;;7.45;2.17;;;;;;;10.40;57.87;101860.13;5054267;28;20037;-68
2021/03/29 04:00:45;;;;;;;7.88;1.92;;;;;;;10.40;57.82;101863.69;5046029;28;20033;-68
2021/03/29 04:03:10;;;;;;;8.40;2.38;;;;;;;10.44;57.46;101859.31;5054146;28;20040;-67
2021/03/29 04:05:35;;;;;;;7.25;2.10;;;;;;;10.41;57.93;101859.28;5053938;28;20102;-68
2021/03/29 04:08:01;;;;;;;8.30;2.78;;;;;;;10.40;57.84;101868.97;5054126;28;20044;-67
2021/03/29 04:13:01;;;;;;;7.28;2.40;;;;;;;10.35;57.59;101860.09;5052341;28;20041;-67
2021/03/29 04:15:26;;;;;;;10.63;3.42;;;;;;;10.35;57.83;101844.25;5051261;28;20124;-67
2021/03/29 04:17:52;;;;;;;10.20;4.63;;;;;;;10.39;57.82;101851.34;5053981;28;20036;-67
2021/03/29 04:20:17;;;;;;;17.35;8.52;;;;;;;10.38;58.34;101846.06;5053787;28;20029;-67
2021/03/29 04:22:43;;;;;;;16.08;7.95;;;;;;;10.36;58.77;101851.28;5053873;28;20028;-68
2021/03/29 04:25:12;;;;;;;11.88;6.07;;;;;;;10.30;58.28;101851.22;5053579;28;20048;-67
2021/03/29 04:27:37;;;;;;;10.60;5.07;;;;;;;10.23;58.07;101849.28;5052268;28;20052;-68
2021/03/29 04:30:06;;;;;;;16.13;5.78;;;;;;;10.23;58.61;101857.19;5058067;28;20029;-68
2021/03/29 04:32:31;;;;;;;9.02;3.90;;;;;;;10.24;57.95;101851.06;5056798;28;20094;-67
2021/03/29 04:34:57;;;;;;;7.90;3.47;;;;;;;10.25;58.64;101848.44;5066291;28;20041;-66
2021/03/29 04:37:22;;;;;;;10.18;3.88;;;;;;;10.27;57.75;101845.81;5056697;28;20037;-67
2021/03/29 04:39:49;;;;;;;7.25;3.00;;;;;;;10.29;57.87;101846.78;5053785;28;20094;-67
2021/03/29 04:42:14;;;;;;;6.35;2.78;;;;;;;10.24;58.24;101851.06;5053539;28;20085;-67
2021/03/29 04:44:40;;;;;;;6.75;2.40;;;;;;;10.23;58.21;101854.56;5053447;28;20033;-68
2021/03/29 04:47:05;;;;;;;6.25;2.78;;;;;;;10.23;58.26;101849.28;5053199;28;20112;-68
2021/03/29 04:49:31;;;;;;;7.90;2.05;;;;;;;10.21;58.15;101853.66;5053261;28;20028;-67
2021/03/29 04:51:56;;;;;;;7.93;2.28;;;;;;;10.19;58.28;101850.09;5053213;28;20126;-67
2021/03/29 04:54:21;;;;;;;8.45;2.40;;;;;;;10.07;59.28;101843.75;5053220;28;20056;-67
2021/03/29 04:56:47;;;;;;;11.25;3.63;;;;;;;10.07;59.35;101853.41;5052973;28;20029;-68
2021/03/29 04:59:12;;;;;;;8.50;2.08;;;;;;;10.03;59.09;101846.31;5053046;28;20040;-67
2021/03/29 05:01:37;;;;;;;5.68;1.90;;;;;;;9.96;59.66;101850.59;5053123;28;20598;-68
2021/03/29 05:04:03;;;;;;;8.35;4.88;;;;;;;9.94;59.61;101844.41;5053276;28;20052;-68
2021/03/29 05:06:30;;;;;;;10.25;3.30;;;;;;;9.86;59.55;101844.28;5052741;28;20037;-68
2021/03/29 05:08:55;;;;;;;7.15;2.13;;;;;;;9.83;60.43;101843.34;5052802;28;20040;-66
2021/03/29 05:11:21;;;;;;;6.88;1.80;;;;;;;9.86;60.14;101848.66;5052917;28;20040;-67
2021/03/29 05:13:46;;;;;;;10.43;5.03;;;;;;;9.86;59.96;101846.03;5052824;28;20040;-68
2021/03/29 05:16:11;;;;;;;8.05;2.35;;;;;;;9.87;59.94;101851.31;5052767;28;20430;-67
2021/03/29 05:18:37;;;;;;;5.30;2.00;;;;;;;9.85;59.67;101846.88;5052667;28;20028;-68
2021/03/29 05:21:02;;;;;;;9.57;2.30;;;;;;;9.88;59.67;101854.84;5052708;28;20032;-67
2021/03/29 05:23:28;;;;;;;6.55;3.10;;;;;;;9.91;59.81;101857.53;5052609;28;20118;-67
2021/03/29 05:25:53;;;;;;;8.95;2.90;;;;;;;9.95;59.76;101859.34;5052434;28;20055;-67
2021/03/29 05:28:19;;;;;;;11.40;2.45;;;;;;;9.93;59.66;101869.00;5052271;28;20429;-67
2021/03/29 05:30:44;;;;;;;9.75;2.47;;;;;;;9.97;59.30;101868.19;5052348;28;20098;-68
2021/03/29 05:33:09;;;;;;;7.38;2.85;;;;;;;9.99;59.60;101868.22;5052503;28;20048;-68
2021/03/29 05:35:35;;;;;;;6.35;2.22;;;;;;;9.96;59.77;101863.78;5052254;28;20028;-67
2021/03/29 05:38:00;;;;;;;10.60;2.53;;;;;;;9.97;59.48;101870.81;5052341;28;20071;-68
2021/03/29 05:40:25;;;;;;;9.38;2.53;;;;;;;9.99;59.28;101866.47;5052247;28;20037;-68
2021/03/29 05:42:51;;;;;;;6.38;1.85;;;;;;;10.05;58.88;101868.31;5052321;28;20108;-67
2021/03/29 05:45:18;;;;;;;6.47;2.10;;;;;;;10.14;58.64;101873.78;5052208;28;20061;-68
2021/03/29 05:47:44;;;;;;;7.75;2.28;;;;;;;10.19;58.29;101863.28;5052275;28;20044;-67
2021/03/29 05:50:12;;;;;;;7.00;2.05;;;;;;;10.24;58.59;101870.44;5051968;28;20037;-68
2021/03/29 05:52:39;;;;;;;7.32;2.08;;;;;;;10.28;58.64;101871.41;5052096;28;20033;-67
2021/03/29 05:55:08;;;;;;;7.82;2.10;;;;;;;10.36;58.13;101874.16;5051679;28;20146;-68
2021/03/29 06:00:35;;;;;;;6.88;2.13;;;;;;;10.46;58.14;101884.00;5051948;28;20075;-67
2021/03/29 06:03:20;;;;;;;7.32;2.15;;;;;;;10.49;58.01;101874.38;5045941;28;20033;-67
2021/03/29 06:05:51;;;;;;;8.43;2.47;;;;;;;10.53;57.48;101876.22;5043606;28;20498;-67
2021/03/29 06:08:16;;;;;;;8.75;3.13;;;;;;;10.65;57.22;101880.78;5051493;28;20037;-67
2021/03/29 06:10:44;;;;;;;11.68;2.30;;;;;;;10.69;57.43;101873.81;5051719;28;20036;-68
2021/03/29 06:13:15;;;;;;;7.90;2.25;;;;;;;10.73;57.35;101879.13;5050620;28;20036;-67
2021/03/29 06:15:40;;;;;;;7.45;1.83;;;;;;;10.79;56.99;101888.00;5104805;22;20110;-73
2021/03/29 06:18:16;;;;;;;9.10;2.45;;;;;;;10.82;56.94;101881.03;5042395;28;20471;-73
2021/03/29 06:21:04;;;;;;;7.65;2.55;;;;;;;10.88;56.98;101883.75;5047921;28;20500;-73
2021/03/29 06:23:30;;;;;;;8.43;2.30;;;;;;;10.99;56.18;101894.47;5041436;28;20037;-73
2021/03/29 06:26:22;;;;;;;8.70;2.65;;;;;;;11.00;56.47;101892.72;5043059;28;20036;-73
2021/03/29 06:28:48;;;;;;;8.45;2.38;;;;;;;11.10;56.00;101895.50;5039984;28;20123;-73
2021/03/29 06:31:28;;;;;;;7.75;2.60;;;;;;;11.22;55.94;101915.03;5039885;28;20191;-73
2021/03/29 06:33:55;;;;;;;8.48;2.55;;;;;;;11.27;55.81;101913.34;5039802;28;20124;-73
2021/03/29 06:36:31;;;;;;;7.25;2.45;;;;;;;11.31;55.47;101904.56;5039477;28;20180;-73
2021/03/29 06:39:11;;;;;;;10.63;4.13;;;;;;;11.43;55.36;101904.75;5043227;28;20108;-73
2021/03/29 06:41:37;;;;;;;7.63;2.40;;;;;;;11.53;55.23;101900.47;5040812;28;20131;-73
2021/03/29 06:44:03;;;;;;;9.60;2.65;;;;;;;11.61;54.47;101899.66;5039797;28;20121;-73
2021/03/29 06:46:29;;;;;;;11.07;2.67;;;;;;;11.65;54.59;101900.56;5040747;28;20041;-73
2021/03/29 06:48:59;;;;;;;7.70;2.53;;;;;;;11.67;54.42;101909.44;5043069;28;20409;-73
2021/03/29 06:51:34;;;;;;;8.23;2.03;;;;;;;11.70;54.69;101909.44;5042132;28;20045;-73
2021/03/29 06:54:05;;;;;;;6.63;2.35;;;;;;;11.77;54.13;101906.00;5039742;28;20160;-73
2021/03/29 06:56:32;;;;;;;9.05;2.20;;;;;;;11.94;53.96;101915.91;5043138;28;20025;-73
2021/03/29 06:59:03;;;;;;;14.00;3.67;;;;;;;12.03;52.91;101908.09;5053072;28;20053;-73
2021/03/29 07:01:29;;;;;;;16.90;2.95;;;;;;;12.19;52.60;101912.63;5052568;28;20044;-73
2021/03/29 07:03:56;;;;;;;9.50;2.92;;;;;;;12.33;52.12;101912.75;5062352;28;20051;-73
2021/03/29 07:06:27;;;;;;;12.27;4.50;;;;;;;12.44;51.31;101920.78;5045741;28;20481;-73
2021/03/29 07:09:02;;;;;;;10.55;2.15;;;;;;;12.58;51.78;101916.50;5042931;28;20043;-73
2021/03/29 07:11:27;;;;;;;8.35;2.63;;;;;;;12.69;51.42;101906.00;5040581;28;20044;-73
2021/03/29 07:13:53;;;;;;;10.05;2.75;;;;;;;12.76;50.45;101906.91;5014729;28;20026;-73
2021/03/29 07:16:21;;;;;;;10.77;3.35;;;;;;;12.87;50.56;101907.88;5038681;28;20041;-73
2021/03/29 07:18:48;;;;;;;13.40;2.58;;;;;;;12.96;50.58;101912.34;5039367;28;20654;-73
2021/03/29 07:21:16;;;;;;;10.52;2.97;;;;;;;13.04;49.94;101916.78;5041037;28;20099;-73
2021/03/29 07:23:42;;;;;;;7.03;2.25;;;;;;;13.06;50.28;101920.34;5045186;28;20506;-73
2021/03/29 07:26:41;;;;;;;7.53;2.28;;;;;;;13.18;49.78;101921.28;5045152;28;20501;-73
2021/03/29 07:29:18;;;;;;;12.00;2.80;;;;;;;13.33;48.68;101937.31;5038803;28;20045;-73
2021/03/29 07:31:44;;;;;;;8.05;2.42;;;;;;;13.47;49.33;101940.03;5046391;28;20400;-73
2021/03/29 07:34:10;;;;;;;10.32;2.60;;;;;;;13.57;48.57;101931.22;5046553;28;20013;-73
2021/03/29 07:36:41;;;;;;;9.30;2.75;;;;;;;13.54;47.99;101937.41;5043939;28;20036;-73
2021/03/29 07:39:07;;;;;;;10.38;3.17;;;;;;;13.42;48.15;101957.69;5043016;28;20499;-73
2021/03/29 07:41:33;;;;;;;17.33;2.92;;;;;;;13.28;48.14;101939.97;5044743;28;20040;-73
2021/03/29 07:44:21;;;;;;;8.38;2.20;;;;;;;13.34;48.04;101955.00;5046485;28;20033;-73
2021/03/29 07:46:56;;;;;;;9.55;2.78;;;;;;;13.54;48.05;101963.91;5039576;28;20127;-73
2021/03/29 07:49:44;;;;;;;9.95;2.53;;;;;;;13.60;47.10;101947.19;5042872;28;20048;-73
2021/03/29 07:52:32;;;;;;;10.95;2.95;;;;;;;13.71;47.20;101948.09;5046157;28;20491;-73
2021/03/29 07:54:59;;;;;;;6.68;2.38;;;;;;;13.89;47.33;101944.63;5025133;28;20037;-73
2021/03/29 07:57:43;;;;;;;9.15;2.88;;;;;;;13.98;46.40;101934.00;5043236;28;20044;-71
2021/03/29 08:00:10;;;;;;;8.60;3.10;;;;;;;14.16;47.64;101937.59;5046068;28;20029;-71
2021/03/29 08:02:38;;;;;;;8.70;3.22;;;;;;;14.28;46.67;101936.69;5043472;28;20033;-71
2021/03/29 08:05:06;;;;;;;6.03;2.45;;;;;;;14.18;45.74;101946.44;5042401;28;20451;-71
2021/03/29 08:07:44;;;;;;;8.23;2.67;;;;;;;14.15;46.48;101957.94;5044024;28;20040;-73
2021/03/29 08:10:12;;;;;;;8.95;3.03;;;;;;;14.08;46.37;101960.59;5044532;28;20434;-73
2021/03/29 08:12:56;;;;;;;8.65;2.90;;;;;;;13.98;46.15;101968.50;5043399;28;20047;-73
2021/03/29 08:15:22;;;;;;;10.85;3.03;;;;;;;13.96;46.51;101967.66;5042292;28;20617;-73
2021/03/29 08:17:49;;;;;;;8.48;3.03;;;;;;;13.95;46.56;101971.16;5045724;28;20040;-73
2021/03/29 08:20:17;;;;;;;11.10;3.17;;;;;;;13.92;45.63;101968.50;5044532;28;20047;-73
2021/03/29 08:22:42;;;;;;;11.43;3.10;;;;;;;14.05;46.31;101965.88;5042626;28;20037;-73
2021/03/29 08:25:26;;;;;;;10.40;3.05;;;;;;;14.32;45.45;101963.25;5040778;28;20044;-73
2021/03/29 08:27:58;;;;;;;9.98;2.95;;;;;;;14.62;44.57;101964.22;5043599;28;20090;-73
2021/03/29 08:30:26;;;;;;;10.02;3.22;;;;;;;14.97;43.53;101971.28;5044825;28;20037;-73
2021/03/29 08:33:08;;;;;;;13.63;3.55;;;;;;;14.98;42.94;101968.59;5041611;28;20124;-73
2021/03/29 08:35:34;;;;;;;11.27;3.58;;;;;;;14.87;43.35;101959.75;5043638;28;20041;-73
2021/03/29 08:38:07;;;;;;;6.63;2.40;;;;;;;14.97;44.00;101956.22;5045381;28;20037;-74
2021/03/29 08:40:33;;;;;;;10.10;3.70;;;;;;;15.09;43.70;101965.91;5042236;28;20038;-73
2021/03/29 08:43:04;;;;;;;8.77;3.25;;;;;;;15.31;43.44;101959.66;5041760;28;20079;-71
2021/03/29 08:45:30;;;;;;;11.20;3.70;;;;;;;15.28;42.90;101972.09;5038006;28;20045;-71
2021/03/29 08:47:59;;;;;;;10.00;3.00;;;;;;;15.29;42.89;101964.09;5057085;28;20029;-71
2021/03/29 08:50:29;;;;;;;8.38;3.05;;;;;;;15.47;43.21;101973.81;5040926;28;20096;-71
2021/03/29 08:53:00;;;;;;;11.98;3.58;;;;;;;15.49;41.70;101973.81;5045201;28;20492;-71
2021/03/29 08:55:31;;;;;;;9.60;3.10;;;;;;;15.47;42.02;101968.50;5043834;28;20608;-71
2021/03/29 08:57:57;;;;;;;11.25;3.38;;;;;;;15.65;42.21;101967.53;5041553;28;20064;-71
2021/03/29 09:00:25;;;;;;;12.20;3.58;;;;;;;15.85;41.05;101972.81;5041640;28;20030;-71
2021/03/29 09:02:51;;;;;;;9.75;3.97;;;;;;;15.91;41.26;101963.91;5044929;28;20090;-71
2021/03/29 09:05:18;;;;;;;12.05;3.85;;;;;;;15.89;41.53;101966.56;5043216;28;20123;-71
2021/03/29 09:07:46;;;;;;;10.07;3.17;;;;;;;15.88;39.72;101963.94;5049099;28;20029;-71
2021/03/29 09:10:16;;;;;;;13.30;4.22;;;;;;;15.86;40.07;101963.91;5054205;28;20032;-71
2021/03/29 09:12:42;;;;;;;8.38;3.17;;;;;;;15.99;40.76;101967.41;5064313;28;20040;-71
2021/03/29 09:15:15;;;;;;;8.55;3.42;;;;;;;15.95;40.30;101977.16;5043288;28;20029;-71
2021/03/29 09:17:42;;;;;;;8.73;3.78;;;;;;;15.86;39.81;101965.69;5041562;28;20044;-71
2021/03/29 09:20:22;;;;;;;11.07;3.70;;;;;;;15.89;40.80;101966.56;5056795;28;20021;-71
2021/03/29 09:22:48;;;;;;;10.07;3.42;;;;;;;16.12;40.67;101968.22;5051880;28;20148;-71
2021/03/29 09:25:22;;;;;;;13.82;3.63;;;;;;;16.20;40.47;101988.56;5040883;28;20025;-72
2021/03/29 09:27:49;;;;;;;11.48;3.83;;;;;;;16.07;40.03;101970.91;5041119;28;20073;-71
2021/03/29 09:30:15;;;;;;;11.90;3.80;;;;;;;16.01;41.39;101973.63;5039709;28;20500;-71
2021/03/29 09:32:43;;;;;;;12.05;3.90;;;;;;;15.99;40.40;101983.38;5043727;28;20067;-71
2021/03/29 09:35:09;;;;;;;9.93;3.33;;;;;;;16.13;40.86;101972.63;5056393;28;20082;-72
2021/03/29 09:37:35;;;;;;;10.68;3.33;;;;;;;16.30;40.58;101967.22;5045529;28;20033;-71
2021/03/29 09:40:05;;;;;;;11.57;3.30;;;;;;;16.44;40.26;101965.31;5044163;28;20055;-71
2021/03/29 09:42:43;;;;;;;13.10;3.97;;;;;;;16.47;40.47;101970.63;5039356;28;20052;-71
2021/03/29 09:45:12;;;;;;;9.70;3.38;;;;;;;16.42;40.35;101965.31;5055870;28;20111;-71
2021/03/29 09:47:38;;;;;;;12.20;4.70;;;;;;;16.26;40.72;101971.66;5045001;28;20072;-71
2021/03/29 09:50:06;;;;;;;10.48;3.70;;;;;;;16.09;41.71;101963.78;5043974;28;20116;-71
2021/03/29 09:52:41;;;;;;;12.60;3.75;;;;;;;16.26;41.34;101966.34;5024486;28;20095;-71
2021/03/29 09:55:09;;;;;;;11.95;4.40;;;;;;;16.14;40.95;101969.97;5039016;28;20041;-71
2021/03/29 09:57:43;;;;;;;9.82;3.67;;;;;;;16.04;41.55;101960.28;5042264;28;20037;-72
2021/03/29 10:00:19;;;;;;;10.57;3.88;;;;;;;15.99;41.26;101956.75;5042581;28;20039;-73
2021/03/29 10:02:47;;;;;;;10.93;3.58;;;;;;;15.99;41.25;101954.97;5042927;28;20067;-71
2021/03/29 10:05:14;;;;;;;13.00;4.35;;;;;;;16.02;41.82;101938.09;5051927;28;20124;-72
2021/03/29 10:07:53;;;;;;;7.57;3.33;;;;;;;16.34;41.74;101939.63;5041316;28;20491;-73
2021/03/29 10:10:28;;;;;;;11.85;3.90;;;;;;;16.25;40.76;101939.72;5042984;28;20391;-71
2021/03/29 10:13:08;;;;;;;8.23;3.15;;;;;;;16.46;41.02;101933.34;5040221;28;20108;-71
2021/03/29 10:15:35;;;;;;;10.57;3.60;;;;;;;16.65;40.32;101933.16;5036926;28;20128;-72
2021/03/29 10:18:08;;;;;;;11.20;4.22;;;;;;;16.63;39.50;101944.72;5040151;28;20044;-72
2021/03/29 10:20:35;;;;;;;11.18;3.88;;;;;;;16.77;39.31;101939.28;5041986;28;20055;-72
2021/03/29 10:23:22;;;;;;;10.20;3.47;;;;;;;16.67;39.25;101945.59;5037359;28;20059;-73
2021/03/29 10:26:29;;;;;;;12.55;3.72;;;;;;;16.58;39.32;101947.47;5039516;28;20041;-72
2021/03/29 10:29:01;;;;;;;11.48;3.85;;;;;;;16.73;39.29;101958.88;5039791;28;20040;-72
2021/03/29 10:31:31;;;;;;;10.70;3.47;;;;;;;16.92;39.50;101948.94;5040567;28;20053;-72
2021/03/29 10:33:57;;;;;;;10.77;3.63;;;;;;;16.84;38.59;101946.34;5041806;28;20036;-72
2021/03/29 10:36:24;;;;;;;11.45;4.32;;;;;;;16.86;38.98;101949.88;5041012;28;20736;-72
2021/03/29 10:38:51;;;;;;;9.13;3.78;;;;;;;16.70;38.54;101945.56;5045151;28;20043;-72
2021/03/29 10:41:16;;;;;;;11.60;3.67;;;;;;;16.50;38.52;101946.59;5045980;28;20032;-72
2021/03/29 10:43:42;;;;;;;9.88;3.20;;;;;;;16.41;39.42;101941.38;5048734;28;20043;-72
2021/03/29 10:46:07;;;;;;;10.77;3.80;;;;;;;16.32;39.95;101938.75;5042128;28;20035;-70
2021/03/29 10:48:33;;;;;;;12.68;3.97;;;;;;;16.44;39.24;101925.34;5049185;28;20108;-71
2021/03/29 10:51:00;;;;;;;7.78;3.20;;;;;;;16.50;39.37;101911.97;5039415;28;20061;-71
2021/03/29 10:53:25;;;;;;;11.25;3.17;;;;;;;16.44;39.35;101918.25;5039523;28;20037;-72
2021/03/29 10:55:50;;;;;;;8.60;3.50;;;;;;;16.50;40.35;101916.41;5037849;28;20502;-72
2021/03/29 10:58:16;;;;;;;10.60;3.55;;;;;;;16.63;40.23;101918.06;5039804;28;20116;-72
2021/03/29 11:00:41;;;;;;;12.13;3.88;;;;;;;16.81;39.58;101923.25;5042127;28;20037;-72
2021/03/29 11:03:07;;;;;;;11.30;4.03;;;;;;;17.05;39.39;101916.78;5042674;28;20028;-72
2021/03/29 11:05:32;;;;;;;13.57;4.35;;;;;;;17.22;38.89;101923.75;5040666;28;20025;-72
2021/03/29 11:07:57;;;;;;;10.10;3.65;;;;;;;17.35;38.38;101930.69;5039428;28;20451;-71
2021/03/29 11:10:23;;;;;;;10.88;4.03;;;;;;;17.41;38.45;101921.72;5047972;28;20060;-72
2021/03/29 11:12:48;;;;;;;8.38;3.97;;;;;;;17.47;38.80;101918.97;5048055;28;20040;-71
2021/03/29 11:15:14;;;;;;;12.48;4.10;;;;;;;17.37;38.38;101928.91;5058387;28;20431;-72
2021/03/29 11:17:39;;;;;;;12.75;3.63;;;;;;;17.14;37.57;101914.94;5062348;28;20123;-72
2021/03/29 11:20:06;;;;;;;9.75;3.90;;;;;;;17.24;38.39;101908.59;5042716;28;20045;-72
2021/03/29 11:22:31;;;;;;;13.10;4.00;;;;;;;17.35;38.19;101896.00;5040982;28;20037;-71
2021/03/29 11:24:57;;;;;;;10.80;3.88;;;;;;;17.50;38.17;101894.91;5039142;28;20094;-72
2021/03/29 11:27:22;;;;;;;10.45;3.70;;;;;;;17.55;37.70;101900.19;5037988;28;20396;-72
2021/03/29 11:29:47;;;;;;;11.50;3.67;;;;;;;17.72;38.04;101909.75;5042553;28;20040;-72
2021/03/29 11:32:13;;;;;;;9.70;3.60;;;;;;;17.72;36.64;101911.53;5042627;28;20024;-72
2021/03/29 11:34:38;;;;;;;9.60;3.63;;;;;;;17.64;37.42;101911.63;5040048;28;20037;-72
2021/03/29 11:37:04;;;;;;;12.93;3.80;;;;;;;17.64;37.41;101914.31;5031978;28;20037;-72